sensor_id;sensor_type;location;lat;lon;timestamp;temperature;humidity
736;DHT22;352;48.626;9.238;2023-09-12T03:10:38;19.00;99.90
736;DHT22;352;48.626;9.238;2023-09-12T03:15:36;18.90;99.90
736;DHT22;352;48.626;9.238;2023-09-12T03:18:04;18.90;99.90
736;DHT22;352;48.626;9.238;2023-09-12T03:27:53;18.90;99.90
736;DHT22;352;48.626;9.238;2023-09-12T03:30:20;18.80;99.90
736;DHT22;352;48.626;9.238;2023-09-12T03:32:47;18.80;99.90
736;DHT22;352;48.626;9.238;2023-09-12T03:35:14;18.90;99.90
736;DHT22;352;48.626;9.238;2023-09-12T03:37:41;18.80;99.90
736;DHT22;352;48.626;9.238;2023-09-12T03:40:09;18.80;99.90
736;DHT22;352;48.626;9.238;2023-09-12T03:42:37;18.80;99.90
736;DHT22;352;48.626;9.238;2023-09-12T03:45:06;18.80;99.90
736;DHT22;352;48.626;9.238;2023-09-12T03:47:33;18.70;99.90
736;DHT22;352;48.626;9.238;2023-09-12T03:49:59;18.70;99.90
736;DHT22;352;48.626;9.238;2023-09-12T03:52:26;18.70;99.90
736;DHT22;352;48.626;9.238;2023-09-12T03:54:53;18.70;99.90
736;DHT22;352;48.626;9.238;2023-09-12T03:57:20;18.70;99.90
736;DHT22;352;48.626;9.238;2023-09-12T03:59:47;18.70;99.90
736;DHT22;352;48.626;9.238;2023-09-12T04:02:15;18.70;99.90
736;DHT22;352;48.626;9.238;2023-09-12T04:04:41;18.70;99.90
736;DHT22;352;48.626;9.238;2023-09-12T04:07:08;18.60;99.90
736;DHT22;352;48.626;9.238;2023-09-12T04:09:35;18.60;99.90
736;DHT22;352;48.626;9.238;2023-09-12T04:12:01;18.60;99.90
736;DHT22;352;48.626;9.238;2023-09-12T04:14:28;18.60;99.90
736;DHT22;352;48.626;9.238;2023-09-12T04:16:55;18.60;99.90
736;DHT22;352;48.626;9.238;2023-09-12T04:19:23;18.50;99.90
736;DHT22;352;48.626;9.238;2023-09-12T04:21:50;18.50;99.90
736;DHT22;352;48.626;9.238;2023-09-12T04:24:16;18.50;99.90
736;DHT22;352;48.626;9.238;2023-09-12T04:26:43;18.50;99.90
736;DHT22;352;48.626;9.238;2023-09-12T04:29:10;18.50;99.90
736;DHT22;352;48.626;9.238;2023-09-12T04:31:37;18.50;99.90
736;DHT22;352;48.626;9.238;2023-09-12T04:34:03;18.50;99.90
736;DHT22;352;48.626;9.238;2023-09-12T04:36:32;18.50;99.90
736;DHT22;352;48.626;9.238;2023-09-12T04:38:59;18.40;99.90
736;DHT22;352;48.626;9.238;2023-09-12T04:41:26;18.40;99.90
736;DHT22;352;48.626;9.238;2023-09-12T04:43:52;18.40;99.90
736;DHT22;352;48.626;9.238;2023-09-12T04:46:19;18.30;99.90
736;DHT22;352;48.626;9.238;2023-09-12T04:48:46;18.30;99.90
736;DHT22;352;48.626;9.238;2023-09-12T04:51:13;18.30;99.90
736;DHT22;352;48.626;9.238;2023-09-12T04:53:41;18.30;99.90
736;DHT22;352;48.626;9.238;2023-09-12T04:56:07;18.30;99.90
736;DHT22;352;48.626;9.238;2023-09-12T04:58:35;18.30;99.90
736;DHT22;352;48.626;9.238;2023-09-12T05:01:02;18.30;99.90
736;DHT22;352;48.626;9.238;2023-09-12T05:03:28;18.40;99.90
736;DHT22;352;48.626;9.238;2023-09-12T05:05:55;18.30;99.90
736;DHT22;352;48.626;9.238;2023-09-12T05:08:23;18.40;99.90
736;DHT22;352;48.626;9.238;2023-09-12T05:10:51;18.40;99.90
736;DHT22;352;48.626;9.238;2023-09-12T05:13:18;18.40;99.90
736;DHT22;352;48.626;9.238;2023-09-12T05:15:45;18.40;99.90
736;DHT22;352;48.626;9.238;2023-09-12T05:18:13;18.40;99.90
736;DHT22;352;48.626;9.238;2023-09-12T05:20:39;18.40;99.90
736;DHT22;352;48.626;9.238;2023-09-12T05:23:06;18.50;99.90
736;DHT22;352;48.626;9.238;2023-09-12T05:25:33;18.50;99.90
736;DHT22;352;48.626;9.238;2023-09-12T05:28:01;18.50;99.90
736;DHT22;352;48.626;9.238;2023-09-12T05:30:28;18.50;99.90
736;DHT22;352;48.626;9.238;2023-09-12T05:32:55;18.50;99.90
736;DHT22;352;48.626;9.238;2023-09-12T05:35:21;18.60;99.90
736;DHT22;352;48.626;9.238;2023-09-12T05:37:48;18.60;99.90
736;DHT22;352;48.626;9.238;2023-09-12T05:40:15;18.70;99.90
736;DHT22;352;48.626;9.238;2023-09-12T05:42:42;18.80;99.90
736;DHT22;352;48.626;9.238;2023-09-12T05:45:10;18.80;99.90
736;DHT22;352;48.626;9.238;2023-09-12T05:47:37;18.90;99.90
736;DHT22;352;48.626;9.238;2023-09-12T05:50:04;18.90;99.90
736;DHT22;352;48.626;9.238;2023-09-12T05:52:32;19.00;99.90
736;DHT22;352;48.626;9.238;2023-09-12T05:54:59;19.00;99.90
736;DHT22;352;48.626;9.238;2023-09-12T05:57:26;19.00;99.90
736;DHT22;352;48.626;9.238;2023-09-12T05:59:52;19.10;99.90
736;DHT22;352;48.626;9.238;2023-09-12T06:02:20;19.10;99.90
736;DHT22;352;48.626;9.238;2023-09-12T06:04:47;19.20;99.90
736;DHT22;352;48.626;9.238;2023-09-12T06:07:14;19.20;99.90
736;DHT22;352;48.626;9.238;2023-09-12T06:09:40;19.30;99.90
736;DHT22;352;48.626;9.238;2023-09-12T06:12:07;19.40;99.90
736;DHT22;352;48.626;9.238;2023-09-12T06:14:34;19.50;99.90
736;DHT22;352;48.626;9.238;2023-09-12T06:17:01;19.60;99.90
736;DHT22;352;48.626;9.238;2023-09-12T06:19:29;19.60;99.90
736;DHT22;352;48.626;9.238;2023-09-12T06:21:56;19.70;99.90
736;DHT22;352;48.626;9.238;2023-09-12T06:24:24;19.90;99.90
736;DHT22;352;48.626;9.238;2023-09-12T06:26:50;19.90;99.90
736;DHT22;352;48.626;9.238;2023-09-12T06:29:18;20.00;99.90
736;DHT22;352;48.626;9.238;2023-09-12T06:31:44;20.10;99.90
736;DHT22;352;48.626;9.238;2023-09-12T06:34:11;20.20;99.90
736;DHT22;352;48.626;9.238;2023-09-12T06:53:57;20.90;99.90
736;DHT22;352;48.626;9.238;2023-09-12T07:21:04;21.20;99.90
736;DHT22;352;48.626;9.238;2023-09-12T07:28:27;21.30;99.90
736;DHT22;352;48.626;9.238;2023-09-12T07:48:06;24.30;99.90
736;DHT22;352;48.626;9.238;2023-09-12T08:20:08;24.10;99.90
736;DHT22;352;48.626;9.238;2023-09-12T08:42:16;25.60;99.90
736;DHT22;352;48.626;9.238;2023-09-12T08:47:11;25.50;99.90
736;DHT22;352;48.626;9.238;2023-09-12T08:54:35;25.90;99.90
736;DHT22;352;48.626;9.238;2023-09-12T08:57:03;26.30;99.90
736;DHT22;352;48.626;9.238;2023-09-12T09:01:59;27.10;99.90
736;DHT22;352;48.626;9.238;2023-09-12T09:04:28;27.50;99.90
736;DHT22;352;48.626;9.238;2023-09-12T09:06:56;28.00;99.90
736;DHT22;352;48.626;9.238;2023-09-12T09:24:10;29.70;96.10
736;DHT22;352;48.626;9.238;2023-09-12T09:26:45;30.00;95.20
736;DHT22;352;48.626;9.238;2023-09-12T09:29:16;30.10;94.60
736;DHT22;352;48.626;9.238;2023-09-12T09:31:44;30.30;95.00
736;DHT22;352;48.626;9.238;2023-09-12T09:46:32;31.80;92.20
736;DHT22;352;48.626;9.238;2023-09-12T09:56:24;32.40;90.80
736;DHT22;352;48.626;9.238;2023-09-12T09:58:52;32.70;90.90
736;DHT22;352;48.626;9.238;2023-09-12T10:01:20;33.00;89.90
736;DHT22;352;48.626;9.238;2023-09-12T10:03:50;33.10;86.40
736;DHT22;352;48.626;9.238;2023-09-12T10:06:18;33.10;96.40
736;DHT22;352;48.626;9.238;2023-09-12T10:08:46;33.40;85.90
736;DHT22;352;48.626;9.238;2023-09-12T10:11:17;33.50;93.10
736;DHT22;352;48.626;9.238;2023-09-12T10:13:46;33.50;85.30
736;DHT22;352;48.626;9.238;2023-09-12T10:16:16;33.70;85.30
736;DHT22;352;48.626;9.238;2023-09-12T10:18:54;33.90;82.20
736;DHT22;352;48.626;9.238;2023-09-12T10:21:29;33.90;79.80
736;DHT22;352;48.626;9.238;2023-09-12T10:23:58;33.70;85.20
736;DHT22;352;48.626;9.238;2023-09-12T10:26:25;33.60;83.90
736;DHT22;352;48.626;9.238;2023-09-12T10:28:52;33.50;81.00
736;DHT22;352;48.626;9.238;2023-09-12T10:31:21;33.40;86.50
736;DHT22;352;48.626;9.238;2023-09-12T10:33:49;33.40;85.30
736;DHT22;352;48.626;9.238;2023-09-12T10:36:18;33.60;84.10
736;DHT22;352;48.626;9.238;2023-09-12T10:38:47;33.70;81.20
736;DHT22;352;48.626;9.238;2023-09-12T10:41:15;33.90;79.40
736;DHT22;352;48.626;9.238;2023-09-12T10:43:43;34.00;77.60
736;DHT22;352;48.626;9.238;2023-09-12T10:46:12;34.10;77.10
736;DHT22;352;48.626;9.238;2023-09-12T10:48:39;34.10;82.50
736;DHT22;352;48.626;9.238;2023-09-12T10:51:07;34.10;82.10
736;DHT22;352;48.626;9.238;2023-09-12T10:53:36;34.30;81.00
736;DHT22;352;48.626;9.238;2023-09-12T10:56:15;34.40;80.10
736;DHT22;352;48.626;9.238;2023-09-12T10:59:10;34.40;77.20
736;DHT22;352;48.626;9.238;2023-09-12T11:01:39;34.40;80.20
736;DHT22;352;48.626;9.238;2023-09-12T11:04:31;34.40;77.10
736;DHT22;352;48.626;9.238;2023-09-12T11:09:28;34.50;75.50
736;DHT22;352;48.626;9.238;2023-09-12T11:11:58;34.50;71.20
736;DHT22;352;48.626;9.238;2023-09-12T11:14:25;34.60;75.70
736;DHT22;352;48.626;9.238;2023-09-12T11:17:20;34.20;68.40
736;DHT22;352;48.626;9.238;2023-09-12T11:19:48;34.60;69.40
736;DHT22;352;48.626;9.238;2023-09-12T11:22:22;34.60;70.00
736;DHT22;352;48.626;9.238;2023-09-12T11:24:51;34.70;81.10
736;DHT22;352;48.626;9.238;2023-09-12T11:27:18;34.70;72.30
736;DHT22;352;48.626;9.238;2023-09-12T11:29:45;34.70;77.90
736;DHT22;352;48.626;9.238;2023-09-12T11:32:25;34.70;66.10
736;DHT22;352;48.626;9.238;2023-09-12T11:34:53;34.50;65.80
736;DHT22;352;48.626;9.238;2023-09-12T11:37:23;34.50;67.30
736;DHT22;352;48.626;9.238;2023-09-12T11:39:52;34.40;66.30
736;DHT22;352;48.626;9.238;2023-09-12T11:42:19;34.40;69.20
736;DHT22;352;48.626;9.238;2023-09-12T11:44:48;34.40;63.80
736;DHT22;352;48.626;9.238;2023-09-12T11:47:16;34.40;69.00
736;DHT22;352;48.626;9.238;2023-09-12T11:49:43;34.40;71.20
736;DHT22;352;48.626;9.238;2023-09-12T11:52:11;34.30;64.70
736;DHT22;352;48.626;9.238;2023-09-12T11:54:39;34.20;68.30
736;DHT22;352;48.626;9.238;2023-09-12T11:57:09;34.20;69.00
736;DHT22;352;48.626;9.238;2023-09-12T11:59:39;34.10;65.00
736;DHT22;352;48.626;9.238;2023-09-12T12:02:10;34.00;68.00
736;DHT22;352;48.626;9.238;2023-09-12T12:04:37;33.90;63.00
736;DHT22;352;48.626;9.238;2023-09-12T12:07:05;33.80;63.40
736;DHT22;352;48.626;9.238;2023-09-12T12:09:32;33.70;63.20
736;DHT22;352;48.626;9.238;2023-09-12T12:12:04;33.60;67.70
736;DHT22;352;48.626;9.238;2023-09-12T12:14:36;33.70;69.90
736;DHT22;352;48.626;9.238;2023-09-12T12:17:07;33.60;64.70
736;DHT22;352;48.626;9.238;2023-09-12T12:19:35;33.50;64.40
736;DHT22;352;48.626;9.238;2023-09-12T12:22:02;33.40;61.80
736;DHT22;352;48.626;9.238;2023-09-12T12:24:37;33.30;66.60
736;DHT22;352;48.626;9.238;2023-09-12T12:27:04;33.20;63.80
736;DHT22;352;48.626;9.238;2023-09-12T12:32:02;33.00;61.80
736;DHT22;352;48.626;9.238;2023-09-12T12:34:30;32.90;62.40
736;DHT22;352;48.626;9.238;2023-09-12T12:36:57;32.90;62.90
736;DHT22;352;48.626;9.238;2023-09-12T12:39:24;32.90;62.70
736;DHT22;352;48.626;9.238;2023-09-12T12:41:52;32.80;62.50
736;DHT22;352;48.626;9.238;2023-09-12T12:44:19;32.80;64.90
736;DHT22;352;48.626;9.238;2023-09-12T12:46:49;32.70;63.80
736;DHT22;352;48.626;9.238;2023-09-12T12:49:19;32.60;63.60
736;DHT22;352;48.626;9.238;2023-09-12T12:51:46;32.60;63.10
736;DHT22;352;48.626;9.238;2023-09-12T12:54:14;32.30;73.90
736;DHT22;352;48.626;9.238;2023-09-12T12:56:43;32.40;64.50
736;DHT22;352;48.626;9.238;2023-09-12T12:59:10;32.40;62.20
736;DHT22;352;48.626;9.238;2023-09-12T13:01:38;32.40;64.40
736;DHT22;352;48.626;9.238;2023-09-12T13:04:05;32.30;65.10
736;DHT22;352;48.626;9.238;2023-09-12T13:06:34;32.30;62.80
736;DHT22;352;48.626;9.238;2023-09-12T13:09:03;32.30;63.70
736;DHT22;352;48.626;9.238;2023-09-12T13:11:31;32.30;64.50
736;DHT22;352;48.626;9.238;2023-09-12T13:14:00;32.20;63.50
736;DHT22;352;48.626;9.238;2023-09-12T13:16:27;32.20;62.40
736;DHT22;352;48.626;9.238;2023-09-12T13:18:54;32.20;62.50
736;DHT22;352;48.626;9.238;2023-09-12T13:21:21;32.10;63.80
736;DHT22;352;48.626;9.238;2023-09-12T13:23:49;32.10;68.00
736;DHT22;352;48.626;9.238;2023-09-12T13:26:15;32.10;65.70
736;DHT22;352;48.626;9.238;2023-09-12T13:28:42;32.00;64.40
736;DHT22;352;48.626;9.238;2023-09-12T13:31:09;32.00;63.60
736;DHT22;352;48.626;9.238;2023-09-12T13:33:37;32.00;65.30
736;DHT22;352;48.626;9.238;2023-09-12T13:36:04;31.90;62.30
736;DHT22;352;48.626;9.238;2023-09-12T13:40:59;31.80;64.60
736;DHT22;352;48.626;9.238;2023-09-12T13:43:26;31.90;62.50
736;DHT22;352;48.626;9.238;2023-09-12T13:45:54;31.90;61.70
736;DHT22;352;48.626;9.238;2023-09-12T13:48:20;31.80;63.40
736;DHT22;352;48.626;9.238;2023-09-12T13:50:47;31.80;64.50
736;DHT22;352;48.626;9.238;2023-09-12T13:53:14;31.80;64.40
736;DHT22;352;48.626;9.238;2023-09-12T13:55:40;31.80;63.20
736;DHT22;352;48.626;9.238;2023-09-12T13:58:08;31.80;63.90
736;DHT22;352;48.626;9.238;2023-09-12T14:00:35;31.80;63.60
736;DHT22;352;48.626;9.238;2023-09-12T14:03:02;31.60;78.20
736;DHT22;352;48.626;9.238;2023-09-12T14:05:29;31.70;65.30
736;DHT22;352;48.626;9.238;2023-09-12T14:10:24;28.00;60.70
736;DHT22;352;48.626;9.238;2023-09-12T14:12:50;31.80;63.90
736;DHT22;352;48.626;9.238;2023-09-12T14:15:19;31.70;65.00
736;DHT22;352;48.626;9.238;2023-09-12T14:17:45;31.70;63.30
736;DHT22;352;48.626;9.238;2023-09-12T14:20:12;31.60;72.80
736;DHT22;352;48.626;9.238;2023-09-12T14:22:41;31.60;69.20
736;DHT22;352;48.626;9.238;2023-09-12T14:25:08;31.60;70.00
736;DHT22;352;48.626;9.238;2023-09-12T14:27:40;31.50;66.70
736;DHT22;352;48.626;9.238;2023-09-12T14:30:09;31.20;73.70
736;DHT22;352;48.626;9.238;2023-09-12T14:32:37;31.30;67.30
736;DHT22;352;48.626;9.238;2023-09-12T14:35:05;31.30;69.20
736;DHT22;352;48.626;9.238;2023-09-12T14:37:33;30.90;70.10
736;DHT22;352;48.626;9.238;2023-09-12T14:40:02;31.10;82.90
736;DHT22;352;48.626;9.238;2023-09-12T14:42:29;30.90;71.40
736;DHT22;352;48.626;9.238;2023-09-12T14:44:56;30.90;71.90
736;DHT22;352;48.626;9.238;2023-09-12T14:49:54;30.60;76.20
736;DHT22;352;48.626;9.238;2023-09-12T14:52:21;30.60;75.10
736;DHT22;352;48.626;9.238;2023-09-12T14:54:47;30.30;78.60
736;DHT22;352;48.626;9.238;2023-09-12T14:57:14;30.30;92.90
736;DHT22;352;48.626;9.238;2023-09-12T14:59:42;30.40;89.60
736;DHT22;352;48.626;9.238;2023-09-12T15:02:08;30.20;75.70
736;DHT22;352;48.626;9.238;2023-09-12T15:04:35;30.30;87.20
736;DHT22;352;48.626;9.238;2023-09-12T15:07:03;30.00;76.70
736;DHT22;352;48.626;9.238;2023-09-12T15:09:30;29.80;84.20
736;DHT22;352;48.626;9.238;2023-09-12T15:11:57;29.80;78.50
736;DHT22;352;48.626;9.238;2023-09-12T15:14:23;29.80;78.40
736;DHT22;352;48.626;9.238;2023-09-12T15:16:50;29.80;81.70
736;DHT22;352;48.626;9.238;2023-09-12T15:19:17;29.80;79.30
736;DHT22;352;48.626;9.238;2023-09-12T15:21:43;29.70;79.30
736;DHT22;352;48.626;9.238;2023-09-12T15:24:11;29.70;82.50
736;DHT22;352;48.626;9.238;2023-09-12T15:26:38;29.70;81.90
736;DHT22;352;48.626;9.238;2023-09-12T15:29:05;29.70;79.60
736;DHT22;352;48.626;9.238;2023-09-12T15:31:33;29.60;80.30
736;DHT22;352;48.626;9.238;2023-09-12T15:33:59;29.60;80.10
736;DHT22;352;48.626;9.238;2023-09-12T15:36:26;29.50;82.00
736;DHT22;352;48.626;9.238;2023-09-12T15:38:53;29.40;82.80
736;DHT22;352;48.626;9.238;2023-09-12T15:41:23;29.40;80.80
736;DHT22;352;48.626;9.238;2023-09-12T15:43:49;29.40;83.50
736;DHT22;352;48.626;9.238;2023-09-12T15:46:16;29.30;84.60
736;DHT22;352;48.626;9.238;2023-09-12T15:48:43;29.30;81.50
736;DHT22;352;48.626;9.238;2023-09-12T15:51:09;29.20;81.00
736;DHT22;352;48.626;9.238;2023-09-12T15:56:04;29.20;80.80
736;DHT22;352;48.626;9.238;2023-09-12T15:58:32;29.20;81.80
736;DHT22;352;48.626;9.238;2023-09-12T16:00:59;29.20;85.20
736;DHT22;352;48.626;9.238;2023-09-12T16:03:28;29.10;85.00
736;DHT22;352;48.626;9.238;2023-09-12T16:05:55;29.10;87.70
736;DHT22;352;48.626;9.238;2023-09-12T16:08:21;29.00;88.40
736;DHT22;352;48.626;9.238;2023-09-12T16:10:49;29.00;88.90
736;DHT22;352;48.626;9.238;2023-09-12T16:13:16;28.90;87.40
736;DHT22;352;48.626;9.238;2023-09-12T16:15:44;28.90;89.10
736;DHT22;352;48.626;9.238;2023-09-12T16:18:11;28.90;90.40
736;DHT22;352;48.626;9.238;2023-09-12T16:20:38;28.80;90.80
736;DHT22;352;48.626;9.238;2023-09-12T16:23:05;28.80;89.80
736;DHT22;352;48.626;9.238;2023-09-12T16:25:32;28.70;90.80
736;DHT22;352;48.626;9.238;2023-09-12T16:27:58;28.80;90.50
736;DHT22;352;48.626;9.238;2023-09-12T16:30:25;28.70;90.70
736;DHT22;352;48.626;9.238;2023-09-12T16:32:53;28.70;91.10
736;DHT22;352;48.626;9.238;2023-09-12T16:35:20;28.70;91.40
736;DHT22;352;48.626;9.238;2023-09-12T16:37:47;28.70;92.00
736;DHT22;352;48.626;9.238;2023-09-12T16:40:16;28.60;91.40
736;DHT22;352;48.626;9.238;2023-09-12T16:42:43;28.60;91.60
736;DHT22;352;48.626;9.238;2023-09-12T16:45:10;28.40;89.40
736;DHT22;352;48.626;9.238;2023-09-12T16:47:37;28.30;89.90
736;DHT22;352;48.626;9.238;2023-09-12T16:50:06;28.30;90.00
736;DHT22;352;48.626;9.238;2023-09-12T16:58:23;27.90;89.80
736;DHT22;352;48.626;9.238;2023-09-12T17:00:52;27.90;90.30
736;DHT22;352;48.626;9.238;2023-09-12T17:03:18;27.90;90.40
736;DHT22;352;48.626;9.238;2023-09-12T17:05:47;28.00;92.20
736;DHT22;352;48.626;9.238;2023-09-12T17:15:37;28.00;90.40
736;DHT22;352;48.626;9.238;2023-09-12T17:22:59;27.80;91.30
736;DHT22;352;48.626;9.238;2023-09-12T17:30:21;27.60;90.50
736;DHT22;352;48.626;9.238;2023-09-12T17:40:11;27.20;91.10
736;DHT22;352;48.626;9.238;2023-09-12T17:57:26;26.50;91.70
736;DHT22;352;48.626;9.238;2023-09-12T18:14:39;26.30;92.80
736;DHT22;352;48.626;9.238;2023-09-12T18:19:34;26.20;93.20
736;DHT22;352;48.626;9.238;2023-09-12T18:31:52;25.90;93.80
736;DHT22;352;48.626;9.238;2023-09-12T18:49:03;25.50;94.70
736;DHT22;352;48.626;9.238;2023-09-12T19:06:13;25.20;95.60
736;DHT22;352;48.626;9.238;2023-09-12T19:23:25;25.00;95.80
736;DHT22;352;48.626;9.238;2023-09-12T19:40:36;24.60;96.80
736;DHT22;352;48.626;9.238;2023-09-12T19:45:33;24.60;96.90
736;DHT22;352;48.626;9.238;2023-09-12T19:50:29;24.50;97.30
736;DHT22;352;48.626;9.238;2023-09-12T20:15:10;24.20;98.30
736;DHT22;352;48.626;9.238;2023-09-12T20:20:05;24.10;98.80
736;DHT22;352;48.626;9.238;2023-09-12T20:32:23;24.00;99.20
736;DHT22;352;48.626;9.238;2023-09-12T21:04:27;23.00;99.90
736;DHT22;352;48.626;9.238;2023-09-12T21:06:55;23.20;99.90
736;DHT22;352;48.626;9.238;2023-09-12T21:09:22;23.00;99.90
736;DHT22;352;48.626;9.238;2023-09-12T21:11:49;23.00;99.90
736;DHT22;352;48.626;9.238;2023-09-12T21:14:16;22.90;99.90
736;DHT22;352;48.626;9.238;2023-09-12T21:16:43;22.90;99.90
736;DHT22;352;48.626;9.238;2023-09-12T21:19:10;23.00;99.90
736;DHT22;352;48.626;9.238;2023-09-12T21:21:37;22.90;99.90
736;DHT22;352;48.626;9.238;2023-09-12T21:24:05;22.80;99.90
736;DHT22;352;48.626;9.238;2023-09-12T21:26:32;22.80;99.90
736;DHT22;352;48.626;9.238;2023-09-12T21:28:59;22.70;99.90
736;DHT22;352;48.626;9.238;2023-09-12T21:31:26;22.70;99.90
736;DHT22;352;48.626;9.238;2023-09-12T21:33:53;22.70;99.90
736;DHT22;352;48.626;9.238;2023-09-12T21:36:20;22.70;99.90
736;DHT22;352;48.626;9.238;2023-09-12T21:38:46;22.70;99.90
736;DHT22;352;48.626;9.238;2023-09-12T21:41:14;22.70;99.90
736;DHT22;352;48.626;9.238;2023-09-12T21:43:41;22.70;99.90
736;DHT22;352;48.626;9.238;2023-09-12T21:46:08;22.80;99.90
736;DHT22;352;48.626;9.238;2023-09-12T21:48:35;22.80;99.90
736;DHT22;352;48.626;9.238;2023-09-12T21:51:01;22.80;99.90
736;DHT22;352;48.626;9.238;2023-09-12T21:53:29;22.80;99.90
736;DHT22;352;48.626;9.238;2023-09-12T21:55:55;22.80;99.90
736;DHT22;352;48.626;9.238;2023-09-12T21:58:23;22.80;99.90
736;DHT22;352;48.626;9.238;2023-09-12T22:00:50;22.90;99.90
736;DHT22;352;48.626;9.238;2023-09-12T22:03:17;22.90;99.90
736;DHT22;352;48.626;9.238;2023-09-12T22:05:45;22.90;99.90
736;DHT22;352;48.626;9.238;2023-09-12T22:08:12;22.90;99.90
736;DHT22;352;48.626;9.238;2023-09-12T22:10:39;22.90;99.90
736;DHT22;352;48.626;9.238;2023-09-12T22:13:06;22.90;99.90
736;DHT22;352;48.626;9.238;2023-09-12T22:15:34;22.90;99.90
736;DHT22;352;48.626;9.238;2023-09-12T22:18:06;22.90;99.90
736;DHT22;352;48.626;9.238;2023-09-12T22:20:32;23.00;99.90
736;DHT22;352;48.626;9.238;2023-09-12T22:23:01;23.00;99.90
736;DHT22;352;48.626;9.238;2023-09-12T22:25:28;23.00;99.90
736;DHT22;352;48.626;9.238;2023-09-12T22:27:55;23.00;99.90
736;DHT22;352;48.626;9.238;2023-09-12T22:30:22;22.90;99.90
736;DHT22;352;48.626;9.238;2023-09-12T22:32:50;22.90;99.90
736;DHT22;352;48.626;9.238;2023-09-12T22:35:16;22.90;99.90
736;DHT22;352;48.626;9.238;2023-09-12T22:37:43;22.80;99.90
736;DHT22;352;48.626;9.238;2023-09-12T22:40:11;22.80;99.90
736;DHT22;352;48.626;9.238;2023-09-12T22:42:37;22.80;99.90
736;DHT22;352;48.626;9.238;2023-09-12T22:45:05;22.70;99.90
736;DHT22;352;48.626;9.238;2023-09-12T22:47:33;22.50;99.90
736;DHT22;352;48.626;9.238;2023-09-12T22:50:03;22.40;99.90
736;DHT22;352;48.626;9.238;2023-09-12T22:52:30;22.30;99.90
736;DHT22;352;48.626;9.238;2023-09-12T22:54:57;22.30;99.90
736;DHT22;352;48.626;9.238;2023-09-12T22:57:24;22.40;99.90
736;DHT22;352;48.626;9.238;2023-09-12T22:59:50;22.40;99.90
736;DHT22;352;48.626;9.238;2023-09-12T23:02:17;22.40;99.90
736;DHT22;352;48.626;9.238;2023-09-12T23:04:44;22.40;99.90
736;DHT22;352;48.626;9.238;2023-09-12T23:07:12;22.40;99.90
736;DHT22;352;48.626;9.238;2023-09-12T23:09:38;22.40;99.90
736;DHT22;352;48.626;9.238;2023-09-12T23:12:05;22.50;99.90
736;DHT22;352;48.626;9.238;2023-09-12T23:14:32;22.50;99.90
736;DHT22;352;48.626;9.238;2023-09-12T23:16:59;22.50;99.90
736;DHT22;352;48.626;9.238;2023-09-12T23:19:26;22.50;99.90
736;DHT22;352;48.626;9.238;2023-09-12T23:21:52;22.60;99.90
736;DHT22;352;48.626;9.238;2023-09-12T23:24:20;22.60;99.90
736;DHT22;352;48.626;9.238;2023-09-12T23:26:50;22.60;99.90
736;DHT22;352;48.626;9.238;2023-09-12T23:29:17;22.60;99.90
736;DHT22;352;48.626;9.238;2023-09-12T23:31:44;22.60;99.90
736;DHT22;352;48.626;9.238;2023-09-12T23:34:10;22.60;99.90
736;DHT22;352;48.626;9.238;2023-09-12T23:36:37;22.60;99.90
736;DHT22;352;48.626;9.238;2023-09-12T23:39:04;22.60;99.90
736;DHT22;352;48.626;9.238;2023-09-12T23:41:32;22.50;99.90
736;DHT22;352;48.626;9.238;2023-09-12T23:43:58;22.50;99.90
736;DHT22;352;48.626;9.238;2023-09-12T23:46:25;22.50;99.90
736;DHT22;352;48.626;9.238;2023-09-12T23:48:52;22.50;99.90
736;DHT22;352;48.626;9.238;2023-09-12T23:51:19;22.50;99.90
736;DHT22;352;48.626;9.238;2023-09-12T23:53:46;22.50;99.90
736;DHT22;352;48.626;9.238;2023-09-12T23:56:12;22.50;99.90
736;DHT22;352;48.626;9.238;2023-09-12T23:58:41;22.50;99.90
